Time;durP1;ratioP1;P1;durP2;ratioP2;P2;SDS_P1;SDS_P2;PMS_P1;PMS_P2;Temp;Humidity;BMP_temperature;BMP_pressure;BME280_temperature;BME280_humidity;BME280_pressure;Samples;Min_cycle;Max_cycle;Signal;HPM_P1;HPM_P2
2023/04/07 00:02:03;;;;;;;693.60;114.10;;;7.30;99.90;;;;;;5027658;28;20716;-54
2023/04/07 00:04:31;;;;;;;823.27;130.40;;;7.30;99.90;;;;;;5029641;28;20218;-54
2023/04/07 00:06:59;;;;;;;1215.07;164.67;;;7.30;99.90;;;;;;5029887;28;20719;-53
2023/04/07 00:09:27;;;;;;;535.10;120.03;;;7.30;99.90;;;;;;5029518;28;20297;-54
2023/04/07 00:11:57;;;;;;;267.70;81.67;;;7.20;99.90;;;;;;5029212;28;20257;-53
2023/04/07 00:14:25;;;;;;;1999.90;421.60;;;7.20;99.90;;;;;;5019453;28;20250;-53
2023/04/07 00:16:53;;;;;;;827.97;125.23;;;7.30;99.90;;;;;;5028586;28;20228;-54
2023/04/07 00:19:21;;;;;;;136.43;31.93;;;7.30;99.90;;;;;;5024383;28;20313;-54
2023/04/07 00:21:49;;;;;;;167.97;52.90;;;7.30;99.90;;;;;;5028928;28;20775;-54
2023/04/07 00:24:17;;;;;;;910.53;120.20;;;7.20;99.90;;;;;;5029567;28;20237;-55
2023/04/07 00:27:01;;;;;;;307.17;74.20;;;7.20;99.90;;;;;;5028888;28;20281;-53
2023/04/07 00:29:29;;;;;;;107.53;42.80;;;7.10;99.90;;;;;;5029480;28;20301;-54
2023/04/07 00:31:57;;;;;;;538.87;105.47;;;7.20;99.90;;;;;;5028572;28;20283;-54
2023/04/07 00:34:25;;;;;;;57.13;31.63;;;7.20;99.90;;;;;;5029079;28;20301;-55
2023/04/07 00:36:53;;;;;;;340.93;68.40;;;7.20;99.90;;;;;;5029102;28;20230;-54
2023/04/07 00:39:21;;;;;;;300.27;75.23;;;7.10;99.90;;;;;;5029158;28;20295;-54
2023/04/07 00:41:50;;;;;;;242.30;63.00;;;7.20;99.90;;;;;;5029234;28;20341;-54
2023/04/07 00:44:19;;;;;;;1276.23;206.17;;;7.20;99.90;;;;;;5045383;28;20300;-55
2023/04/07 00:46:48;;;;;;;748.77;129.80;;;7.10;99.90;;;;;;5029160;28;20596;-55
2023/04/07 00:49:17;;;;;;;495.13;75.10;;;7.20;99.90;;;;;;5029031;28;20208;-54
2023/04/07 00:51:46;;;;;;;468.13;86.23;;;7.20;99.90;;;;;;5029098;28;20316;-54
2023/04/07 00:54:15;;;;;;;87.07;43.80;;;7.10;99.90;;;;;;5028467;28;20214;-53
2023/04/07 00:56:43;;;;;;;1028.93;162.67;;;7.20;99.90;;;;;;5022426;28;20704;-54
2023/04/07 00:59:11;;;;;;;68.60;36.47;;;7.10;99.90;;;;;;5027908;28;20250;-54
2023/04/07 01:01:48;;;;;;;638.60;102.57;;;7.10;99.90;;;;;;5016014;28;20230;-53
2023/04/07 01:04:26;;;;;;;375.37;71.90;;;7.10;99.90;;;;;;5028879;28;20626;-54
2023/04/07 01:07:01;;;;;;;383.93;92.83;;;7.20;99.90;;;;;;5028724;28;20195;-55
2023/04/07 01:09:37;;;;;;;436.00;87.23;;;7.20;99.90;;;;;;5028494;28;20297;-54
2023/04/07 01:12:12;;;;;;;965.97;159.43;;;7.10;99.90;;;;;;5028293;28;20328;-54
2023/04/07 01:14:45;;;;;;;194.50;53.50;;;7.10;99.90;;;;;;5028449;28;20233;-53
2023/04/07 01:17:16;;;;;;;689.77;156.40;;;7.00;99.90;;;;;;5028411;28;20277;-53
2023/04/07 01:19:52;;;;;;;917.07;115.43;;;7.00;99.90;;;;;;5028459;28;20206;-54
2023/04/07 01:22:24;;;;;;;1089.10;171.77;;;7.00;99.90;;;;;;5026934;28;20232;-55
2023/04/07 01:25:10;;;;;;;54.43;30.70;;;7.10;99.90;;;;;;5028459;28;20658;-54
2023/04/07 01:27:49;;;;;;;284.07;81.33;;;7.10;99.90;;;;;;5028533;28;20198;-53
2023/04/07 01:30:19;;;;;;;1999.90;369.10;;;7.00;99.90;;;;;;5018903;28;20756;-55
2023/04/07 01:32:51;;;;;;;146.30;55.10;;;7.00;99.90;;;;;;5023833;28;20308;-55
2023/04/07 01:35:20;;;;;;;818.63;101.97;;;7.00;99.90;;;;;;5028406;28;20220;-54
2023/04/07 01:37:49;;;;;;;761.30;98.53;;;7.00;99.90;;;;;;5028177;28;20237;-54
2023/04/07 01:40:18;;;;;;;654.93;110.77;;;7.00;99.90;;;;;;5032548;28;20344;-56
2023/04/07 01:42:46;;;;;;;196.50;66.13;;;7.00;99.90;;;;;;5032279;28;20254;-53
2023/04/07 01:45:18;;;;;;;1999.90;324.27;;;7.00;99.90;;;;;;5031463;28;20289;-54
2023/04/07 01:47:46;;;;;;;221.27;64.00;;;7.00;99.90;;;;;;5032450;28;20206;-54
2023/04/07 01:50:15;;;;;;;249.97;54.70;;;7.00;99.90;;;;;;5032029;28;20217;-54
2023/04/07 01:52:44;;;;;;;87.07;43.60;;;7.00;99.90;;;;;;5032321;28;20314;-54
2023/04/07 01:55:14;;;;;;;1010.43;171.17;;;6.90;99.90;;;;;;5020769;28;20242;-54
2023/04/07 01:57:42;;;;;;;1413.90;184.50;;;6.90;99.90;;;;;;5030896;28;20261;-55
2023/04/07 02:00:11;;;;;;;166.63;45.67;;;6.90;99.90;;;;;;5028073;28;20284;-54
2023/04/07 02:02:45;;;;;;;164.67;56.37;;;7.00;99.90;;;;;;5031579;28;20276;-53
2023/04/07 02:05:17;;;;;;;180.33;65.40;;;7.00;99.90;;;;;;5032233;28;20206;-54
2023/04/07 02:07:51;;;;;;;1999.90;317.90;;;7.00;99.90;;;;;;5032278;28;20254;-54
2023/04/07 02:10:23;;;;;;;76.57;37.63;;;7.10;99.90;;;;;;5031361;28;20738;-54
2023/04/07 02:12:52;;;;;;;64.83;35.67;;;7.00;99.90;;;;;;5031765;28;20262;-54
2023/04/07 02:15:21;;;;;;;189.07;49.63;;;7.00;99.90;;;;;;5023107;28;20270;-54
2023/04/07 02:17:54;;;;;;;46.00;29.63;;;7.00;99.90;;;;;;5031844;28;20601;-53
2023/04/07 02:20:24;;;;;;;1029.43;152.43;;;7.00;99.90;;;;;;5031570;28;20582;-54
2023/04/07 02:22:52;;;;;;;630.70;87.13;;;7.00;99.90;;;;;;5029275;28;20727;-54
2023/04/07 02:25:25;;;;;;;181.23;60.60;;;7.00;99.90;;;;;;5025321;28;20244;-54
2023/04/07 02:27:54;;;;;;;167.53;50.07;;;7.10;99.90;;;;;;5021227;28;20206;-53
2023/04/07 02:30:22;;;;;;;627.80;123.33;;;7.00;99.90;;;;;;5031244;28;20696;-54
2023/04/07 02:32:52;;;;;;;79.13;35.93;;;7.00;99.90;;;;;;5031210;28;20253;-54
2023/04/07 02:35:20;;;;;;;74.10;39.10;;;6.90;99.90;;;;;;5031708;28;20206;-54
2023/04/07 02:37:49;;;;;;;190.27;59.87;;;7.00;99.90;;;;;;5031091;28;20222;-53
2023/04/07 02:40:17;;;;;;;211.30;51.53;;;7.00;99.90;;;;;;5023317;28;20206;-54
2023/04/07 02:42:46;;;;;;;105.40;37.67;;;7.10;99.90;;;;;;5027206;28;20341;-54
2023/04/07 02:45:14;;;;;;;73.00;43.17;;;7.00;99.90;;;;;;5025425;28;20278;-53
2023/04/07 02:47:42;;;;;;;75.07;45.70;;;7.00;99.90;;;;;;5031332;28;20289;-53
2023/04/07 02:50:12;;;;;;;166.07;49.97;;;7.00;99.90;;;;;;5017832;28;20203;-53
2023/04/07 02:52:40;;;;;;;83.13;43.87;;;7.00;99.90;;;;;;5031655;28;20230;-54
2023/04/07 02:55:09;;;;;;;142.67;58.97;;;7.00;99.90;;;;;;5031377;28;20217;-53
2023/04/07 02:57:37;;;;;;;138.23;41.73;;;7.00;99.90;;;;;;5031245;28;20226;-54
2023/04/07 03:00:06;;;;;;;221.30;64.77;;;7.00;99.90;;;;;;5031286;28;20233;-54
2023/04/07 03:02:34;;;;;;;252.77;84.83;;;7.00;99.90;;;;;;5030599;28;20313;-54
2023/04/07 03:05:03;;;;;;;88.00;45.30;;;7.00;99.90;;;;;;5027777;28;20647;-54
2023/04/07 03:07:32;;;;;;;36.53;24.67;;;7.00;99.90;;;;;;5030876;28;20202;-54
2023/04/07 03:10:00;;;;;;;63.40;30.13;;;6.90;99.90;;;;;;5020292;28;20302;-54
2023/04/07 03:12:28;;;;;;;89.63;43.03;;;7.00;99.90;;;;;;5030468;28;20242;-53
2023/04/07 03:14:56;;;;;;;260.67;74.23;;;7.00;99.90;;;;;;5030383;28;20249;-54
2023/04/07 03:17:25;;;;;;;163.80;36.87;;;7.00;99.90;;;;;;5030219;28;20313;-54
2023/04/07 03:19:53;;;;;;;83.93;37.07;;;7.00;99.90;;;;;;5030912;28;20206;-55
2023/04/07 03:22:21;;;;;;;42.30;27.67;;;7.00;99.90;;;;;;5030627;28;20661;-54
2023/04/07 03:24:50;;;;;;;77.10;35.77;;;7.00;99.90;;;;;;5030806;28;20225;-54
2023/04/07 03:27:19;;;;;;;303.13;63.53;;;7.00;99.90;;;;;;5030025;28;20233;-54
2023/04/07 03:29:47;;;;;;;149.83;38.47;;;7.00;99.90;;;;;;5027140;28;20261;-54
2023/04/07 03:32:15;;;;;;;63.83;33.83;;;7.00;99.90;;;;;;5023876;28;20321;-54
2023/04/07 03:34:43;;;;;;;594.07;111.37;;;7.00;99.90;;;;;;5026356;28;20300;-53
2023/04/07 03:37:11;;;;;;;1715.43;194.67;;;7.00;99.90;;;;;;5030182;28;20700;-55
2023/04/07 03:39:39;;;;;;;188.60;40.73;;;7.10;99.90;;;;;;5018771;28;20253;-54
2023/04/07 03:42:09;;;;;;;52.70;29.90;;;7.00;99.90;;;;;;5028419;28;20256;-54
2023/04/07 03:44:37;;;;;;;559.47;127.70;;;7.00;99.90;;;;;;5027337;28;20206;-55
2023/04/07 03:47:05;;;;;;;461.93;99.97;;;7.00;99.90;;;;;;5021893;28;20226;-55
2023/04/07 03:49:33;;;;;;;58.50;35.63;;;6.90;99.90;;;;;;5025582;28;20567;-55
2023/04/07 03:52:01;;;;;;;51.00;30.87;;;6.90;99.90;;;;;;5029134;28;20222;-53
2023/04/07 03:54:29;;;;;;;40.57;22.03;;;7.00;99.90;;;;;;5029591;28;20210;-54
2023/04/07 03:56:57;;;;;;;1692.20;230.13;;;7.00;99.90;;;;;;5029686;28;20670;-54
2023/04/07 03:59:27;;;;;;;41.90;23.57;;;7.00;99.90;;;;;;5029596;28;20306;-54
2023/04/07 04:01:55;;;;;;;1999.90;344.93;;;7.00;99.90;;;;;;5028934;28;20254;-54
2023/04/07 04:04:24;;;;;;;425.00;63.77;;;7.00;99.90;;;;;;5029741;28;20214;-53
2023/04/07 04:06:52;;;;;;;1999.90;355.07;;;7.00;99.90;;;;;;5029702;28;20264;-54
2023/04/07 04:09:20;;;;;;;995.70;143.90;;;7.00;99.90;;;;;;5020778;28;20627;-54
2023/04/07 04:11:48;;;;;;;61.63;34.90;;;7.00;99.90;;;;;;5029306;28;20321;-54
2023/04/07 04:14:16;;;;;;;275.50;54.53;;;7.00;99.90;;;;;;5029729;28;20297;-54
2023/04/07 04:16:45;;;;;;;288.07;71.17;;;7.00;99.90;;;;;;5029249;28;20241;-53
2023/04/07 04:19:13;;;;;;;1055.63;193.90;;;7.00;99.90;;;;;;5029182;28;20322;-53
2023/04/07 04:21:41;;;;;;;239.87;66.20;;;7.10;99.90;;;;;;5029388;28;20321;-54
2023/04/07 04:24:10;;;;;;;194.10;55.10;;;7.00;99.90;;;;;;5029661;28;20216;-54
2023/04/07 04:26:38;;;;;;;359.83;74.13;;;7.00;99.90;;;;;;5029310;28;20305;-55
2023/04/07 04:29:06;;;;;;;50.90;29.60;;;7.00;99.90;;;;;;5029300;28;20290;-54
2023/04/07 04:31:34;;;;;;;229.57;52.17;;;7.00;99.90;;;;;;5028960;28;20750;-53
2023/04/07 04:34:03;;;;;;;1259.33;179.07;;;7.00;99.90;;;;;;5028996;28;20214;-54
2023/04/07 04:36:31;;;;;;;473.17;64.90;;;7.00;99.90;;;;;;5029012;28;20735;-53
2023/04/07 04:38:59;;;;;;;309.07;55.50;;;6.90;99.90;;;;;;5028813;28;20344;-54
2023/04/07 04:41:27;;;;;;;1700.40;226.20;;;6.90;99.90;;;;;;5028713;28;20205;-53
2023/04/07 04:43:55;;;;;;;381.70;80.03;;;7.00;99.90;;;;;;5028168;28;20272;-54
2023/04/07 04:46:23;;;;;;;150.07;44.37;;;7.00;99.90;;;;;;5027940;28;20202;-53
2023/04/07 04:48:52;;;;;;;40.60;22.80;;;6.90;99.90;;;;;;5028529;28;20783;-55
2023/04/07 04:51:22;;;;;;;60.37;21.90;;;6.90;99.90;;;;;;5028511;28;20687;-54
2023/04/07 04:53:50;;;;;;;43.80;26.50;;;7.00;99.90;;;;;;5025040;28;20310;-53
2023/04/07 04:56:18;;;;;;;501.43;68.43;;;7.00;99.90;;;;;;5028584;28;20249;-53
2023/04/07 04:58:46;;;;;;;133.57;31.00;;;7.00;99.90;;;;;;5028225;28;20975;-53
2023/04/07 05:01:14;;;;;;;47.03;29.43;;;7.00;99.90;;;;;;5028537;28;20302;-54
2023/04/07 05:03:42;;;;;;;31.07;18.67;;;7.00;99.90;;;;;;5019187;28;20210;-53
2023/04/07 05:06:11;;;;;;;706.03;92.10;;;7.00;99.90;;;;;;5028592;28;20301;-54
2023/04/07 05:08:40;;;;;;;39.20;26.00;;;7.00;99.90;;;;;;5028740;28;20294;-53
2023/04/07 05:11:08;;;;;;;32.87;15.23;;;7.00;99.90;;;;;;5027795;28;20692;-54
2023/04/07 05:13:36;;;;;;;24.53;16.20;;;7.10;99.90;;;;;;5028210;28;20240;-54
2023/04/07 05:16:05;;;;;;;165.47;37.67;;;7.10;99.90;;;;;;5028877;28;20305;-55
2023/04/07 05:18:33;;;;;;;88.67;25.53;;;7.10;99.90;;;;;;5028029;28;20329;-53
2023/04/07 05:21:01;;;;;;;289.83;54.20;;;7.00;99.90;;;;;;5028368;28;20240;-55
2023/04/07 05:23:29;;;;;;;118.03;39.83;;;7.10;99.90;;;;;;5027687;28;20264;-54
2023/04/07 05:25:59;;;;;;;136.77;29.57;;;7.00;99.90;;;;;;5014578;28;20619;-54
2023/04/07 05:28:27;;;;;;;204.83;37.90;;;7.00;99.90;;;;;;5027649;28;20777;-54
2023/04/07 05:30:55;;;;;;;1184.03;221.07;;;7.10;99.90;;;;;;5024211;28;20210;-55
2023/04/07 05:33:23;;;;;;;37.73;19.23;;;7.10;99.90;;;;;;5027751;28;20788;-54
2023/04/07 05:35:51;;;;;;;30.87;19.77;;;7.20;99.90;;;;;;5027738;28;20238;-55
2023/04/07 05:38:19;;;;;;;190.53;57.67;;;7.20;99.90;;;;;;5028373;28;20273;-53
2023/04/07 05:40:47;;;;;;;93.37;29.37;;;7.10;99.90;;;;;;5027457;28;20248;-54
2023/04/07 05:43:16;;;;;;;143.40;49.90;;;7.20;99.90;;;;;;5028125;28;20258;-54
2023/04/07 05:45:44;;;;;;;49.03;22.80;;;7.20;99.90;;;;;;5028285;28;20206;-54
2023/04/07 05:48:12;;;;;;;53.57;15.20;;;7.20;99.90;;;;;;5028231;28;20207;-54
2023/04/07 05:50:40;;;;;;;92.10;39.80;;;7.20;99.90;;;;;;5028374;28;20293;-55
2023/04/07 05:53:08;;;;;;;82.90;32.93;;;7.20;99.90;;;;;;5028455;28;20260;-53
2023/04/07 05:55:36;;;;;;;45.83;26.40;;;7.30;99.90;;;;;;5028296;28;20245;-54
2023/04/07 05:58:04;;;;;;;44.30;22.20;;;7.30;99.90;;;;;;5027949;28;20778;-54
2023/04/07 06:00:33;;;;;;;35.43;18.13;;;7.30;99.90;;;;;;5024279;28;20646;-55
2023/04/07 06:03:02;;;;;;;37.80;21.50;;;7.30;99.90;;;;;;5027693;28;20734;-54
2023/04/07 06:05:30;;;;;;;247.53;58.27;;;7.30;99.90;;;;;;5027915;28;20799;-54
2023/04/07 06:07:59;;;;;;;105.97;40.97;;;7.30;99.90;;;;;;5028257;28;20217;-54
2023/04/07 06:10:27;;;;;;;490.00;62.60;;;7.30;99.90;;;;;;5024898;28;20310;-54
2023/04/07 06:12:55;;;;;;;206.23;48.37;;;7.30;99.90;;;;;;5025528;28;20317;-53
2023/04/07 06:15:23;;;;;;;332.93;62.20;;;7.30;99.90;;;;;;5030143;28;20241;-54
2023/04/07 06:17:52;;;;;;;428.63;84.53;;;7.30;99.90;;;;;;5027875;28;20210;-54
2023/04/07 06:20:21;;;;;;;157.97;28.73;;;7.40;99.90;;;;;;5025367;28;20272;-54
2023/04/07 06:22:49;;;;;;;186.33;61.07;;;7.40;99.90;;;;;;5027612;28;20226;-54
2023/04/07 06:25:18;;;;;;;148.03;34.23;;;7.40;99.90;;;;;;5026505;28;20210;-55
2023/04/07 06:27:46;;;;;;;116.47;25.30;;;7.40;99.90;;;;;;5029727;28;20214;-54
2023/04/07 06:30:14;;;;;;;51.10;23.53;;;7.40;99.90;;;;;;5029671;28;20739;-53
2023/04/07 06:32:42;;;;;;;43.00;23.57;;;7.50;99.90;;;;;;5016500;28;20224;-53
2023/04/07 06:35:12;;;;;;;66.80;28.63;;;7.50;99.90;;;;;;5018535;28;20268;-55
2023/04/07 06:37:40;;;;;;;147.87;55.03;;;7.60;99.90;;;;;;5029117;28;20289;-54
2023/04/07 06:40:09;;;;;;;104.97;34.70;;;7.60;99.90;;;;;;5029678;28;20246;-56
2023/04/07 06:42:37;;;;;;;322.17;67.07;;;7.60;99.90;;;;;;5030317;28;20321;-54
2023/04/07 06:45:06;;;;;;;207.00;56.53;;;7.70;99.90;;;;;;5031172;28;20211;-55
2023/04/07 06:47:34;;;;;;;155.80;39.33;;;7.70;99.90;;;;;;5031058;28;20214;-54
2023/04/07 06:50:02;;;;;;;351.00;52.57;;;7.70;99.90;;;;;;5028452;28;20202;-54
2023/04/07 06:52:31;;;;;;;903.73;142.27;;;7.70;99.90;;;;;;5023029;28;20258;-54
2023/04/07 06:55:00;;;;;;;1252.87;197.60;;;7.70;99.90;;;;;;5026343;28;20218;-54
2023/04/07 06:57:28;;;;;;;349.60;61.53;;;7.60;99.90;;;;;;5030829;28;20268;-54
2023/04/07 06:59:56;;;;;;;208.23;46.93;;;7.60;99.90;;;;;;5018885;28;20257;-54
2023/04/07 07:02:24;;;;;;;119.73;28.53;;;7.50;99.90;;;;;;5030482;28;20785;-54
2023/04/07 07:04:52;;;;;;;141.20;41.60;;;7.50;99.90;;;;;;5030524;28;20221;-54
2023/04/07 07:07:20;;;;;;;49.67;28.90;;;7.50;99.90;;;;;;5031047;28;20244;-54
2023/04/07 07:09:50;;;;;;;1805.87;269.10;;;7.60;99.90;;;;;;5016552;28;20575;-55
2023/04/07 07:12:18;;;;;;;353.83;66.17;;;7.70;99.90;;;;;;5030761;28;20242;-56
2023/04/07 07:14:46;;;;;;;421.70;62.47;;;7.60;99.90;;;;;;5030786;28;20238;-55
2023/04/07 07:17:14;;;;;;;634.83;138.13;;;7.60;99.90;;;;;;5030359;28;20625;-54
2023/04/07 07:19:42;;;;;;;87.40;43.17;;;7.60;99.90;;;;;;5030648;28;20283;-55
2023/04/07 07:22:10;;;;;;;1999.90;352.13;;;7.60;99.90;;;;;;5030752;28;20226;-54
2023/04/07 07:24:38;;;;;;;137.73;35.47;;;7.70;99.90;;;;;;5030625;28;20253;-55
2023/04/07 07:27:07;;;;;;;429.47;74.40;;;7.70;99.90;;;;;;5030703;28;20213;-55
2023/04/07 07:29:35;;;;;;;56.63;28.33;;;7.70;99.90;;;;;;5030885;28;20294;-55
2023/04/07 07:32:03;;;;;;;252.37;53.20;;;7.80;99.90;;;;;;5025965;28;20330;-54
2023/04/07 07:34:32;;;;;;;51.03;37.43;;;7.80;99.90;;;;;;5028085;28;20625;-54
2023/04/07 07:37:00;;;;;;;166.90;41.90;;;7.90;99.90;;;;;;5030431;28;20309;-55
2023/04/07 07:39:29;;;;;;;491.67;113.70;;;7.90;99.90;;;;;;5030413;28;20264;-54
2023/04/07 07:41:57;;;;;;;1379.43;206.47;;;7.90;99.90;;;;;;5030145;28;20317;-55
2023/04/07 07:44:26;;;;;;;119.13;77.00;;;8.00;99.90;;;;;;5029981;28;20258;-54
2023/04/07 07:46:54;;;;;;;337.67;76.27;;;8.00;99.90;;;;;;5030428;28;20293;-54
2023/04/07 07:49:22;;;;;;;823.97;117.60;;;7.90;99.90;;;;;;5020552;28;20238;-54
2023/04/07 07:51:50;;;;;;;266.77;60.47;;;7.90;99.90;;;;;;5030453;28;20306;-55
2023/04/07 07:54:18;;;;;;;146.43;54.77;;;7.80;99.90;;;;;;5030155;28;20243;-54
2023/04/07 07:56:46;;;;;;;161.37;51.43;;;7.90;99.90;;;;;;5022573;28;20207;-54
2023/04/07 07:59:14;;;;;;;787.37;157.43;;;7.90;99.90;;;;;;5029660;28;20261;-55
2023/04/07 08:01:46;;;;;;;317.83;57.47;;;8.00;99.90;;;;;;5029647;28;20225;-54
2023/04/07 08:04:14;;;;;;;1672.33;257.80;;;8.10;99.90;;;;;;5029825;28;20234;-54
2023/04/07 08:06:42;;;;;;;1825.17;339.67;;;8.10;99.90;;;;;;5028636;28;20234;-54
2023/04/07 08:09:10;;;;;;;1999.90;492.87;;;8.10;99.90;;;;;;5029512;28;20238;-53
2023/04/07 08:11:38;;;;;;;325.50;55.83;;;8.00;99.90;;;;;;5029227;28;20319;-54
2023/04/07 08:14:06;;;;;;;159.33;61.93;;;8.00;99.90;;;;;;5029775;28;20220;-54
2023/04/07 08:16:37;;;;;;;1045.93;155.87;;;8.00;99.90;;;;;;5029829;28;20579;-54
2023/04/07 08:19:07;;;;;;;703.97;91.50;;;7.90;99.90;;;;;;5022348;28;20618;-55
2023/04/07 08:21:35;;;;;;;274.87;48.00;;;7.90;99.90;;;;;;5029498;28;20312;-54
2023/04/07 08:24:03;;;;;;;687.87;145.73;;;7.90;99.90;;;;;;5029347;28;20286;-53
2023/04/07 08:26:31;;;;;;;156.27;43.53;;;8.00;99.90;;;;;;5028762;28;20237;-54
2023/04/07 08:28:59;;;;;;;988.50;187.57;;;8.00;99.90;;;;;;5027346;28;20321;-54
2023/04/07 08:31:28;;;;;;;61.50;35.77;;;7.90;99.90;;;;;;5029049;28;20206;-54
2023/04/07 08:33:57;;;;;;;1240.83;169.67;;;8.00;99.90;;;;;;5029330;28;20218;-55
2023/04/07 08:36:27;;;;;;;121.10;46.47;;;8.10;99.90;;;;;;5015530;28;20356;-54
2023/04/07 08:38:55;;;;;;;1077.80;139.90;;;8.00;99.90;;;;;;5024267;28;20860;-54
2023/04/07 08:41:28;;;;;;;42.43;25.63;;;8.10;99.90;;;;;;5027405;28;20218;-55
2023/04/07 08:43:57;;;;;;;1295.53;185.60;;;8.10;99.90;;;;;;5028084;28;20293;-55
2023/04/07 08:46:26;;;;;;;1999.90;315.97;;;8.10;99.90;;;;;;5029004;28;20666;-54
2023/04/07 08:48:57;;;;;;;1706.37;221.50;;;8.20;99.90;;;;;;5019911;28;20217;-54
2023/04/07 08:51:30;;;;;;;337.73;94.10;;;8.10;99.90;;;;;;5029112;28;20241;-55
2023/04/07 08:54:06;;;;;;;1999.90;794.73;;;8.10;99.90;;;;;;5029354;28;20670;-54
2023/04/07 08:56:34;;;;;;;1999.90;329.97;;;8.20;99.90;;;;;;5019239;28;20767;-55
2023/04/07 08:59:02;;;;;;;964.67;157.37;;;8.10;99.90;;;;;;5029090;28;20205;-54
2023/04/07 09:01:30;;;;;;;268.07;55.13;;;8.10;99.90;;;;;;5028689;28;20234;-54
2023/04/07 09:03:59;;;;;;;1999.90;396.67;;;8.10;99.90;;;;;;5023314;28;20234;-55
2023/04/07 09:06:30;;;;;;;1399.63;183.50;;;8.10;99.90;;;;;;5023316;28;20264;-54
2023/04/07 09:08:58;;;;;;;1999.90;552.30;;;8.10;99.90;;;;;;5023416;28;20210;-55
2023/04/07 09:11:27;;;;;;;1999.90;564.27;;;8.20;99.90;;;;;;5027220;28;20253;-55
2023/04/07 09:13:55;;;;;;;1999.90;525.90;;;8.20;99.90;;;;;;5028068;28;20202;-60
2023/04/07 09:16:23;;;;;;;1155.63;188.00;;;8.20;99.90;;;;;;5028732;28;20747;-55
2023/04/07 09:18:53;;;;;;;232.93;58.90;;;8.10;99.90;;;;;;5028437;28;20213;-55
2023/04/07 09:21:21;;;;;;;743.77;113.93;;;8.10;99.90;;;;;;5028202;28;20226;-55
2023/04/07 09:23:50;;;;;;;658.07;181.87;;;8.10;99.90;;;;;;5027939;28;20295;-53
2023/04/07 09:26:20;;;;;;;1284.73;177.70;;;8.10;99.90;;;;;;5022193;28;20200;-56
2023/04/07 09:28:53;;;;;;;978.90;142.67;;;8.20;99.90;;;;;;5028617;28;20202;-54
2023/04/07 09:31:24;;;;;;;1999.90;545.70;;;8.30;99.90;;;;;;5028189;28;20213;-55
2023/04/07 09:33:53;;;;;;;345.57;74.17;;;8.20;99.90;;;;;;5027860;28;20237;-55
2023/04/07 09:36:21;;;;;;;197.97;41.97;;;8.20;99.90;;;;;;5027978;28;20730;-54
2023/04/07 09:38:52;;;;;;;1993.27;342.03;;;8.30;99.90;;;;;;5022650;28;20249;-54
2023/04/07 09:41:20;;;;;;;1999.90;442.60;;;8.30;99.90;;;;;;5027246;28;20326;-56
2023/04/07 09:43:48;;;;;;;671.87;77.93;;;8.40;99.90;;;;;;5028438;28;20636;-55
2023/04/07 09:46:18;;;;;;;1757.70;233.90;;;8.40;99.90;;;;;;5020925;28;20254;-55
2023/04/07 09:48:47;;;;;;;594.80;108.17;;;8.40;99.90;;;;;;5028547;28;20298;-55
2023/04/07 09:51:17;;;;;;;74.90;27.30;;;8.50;99.90;;;;;;5030848;28;20811;-55
2023/04/07 09:53:47;;;;;;;1999.90;403.83;;;8.60;99.90;;;;;;5028702;28;20207;-55
2023/04/07 09:56:21;;;;;;;1848.37;340.10;;;8.60;99.90;;;;;;5028114;28;20206;-54
2023/04/07 09:58:50;;;;;;;1999.90;383.33;;;8.60;99.90;;;;;;5028103;28;20207;-55
2023/04/07 10:01:20;;;;;;;1999.90;896.43;;;8.60;99.90;;;;;;5030456;28;20244;-55
2023/04/07 10:03:49;;;;;;;116.73;41.40;;;8.90;99.90;;;;;;5029559;28;20206;-55
2023/04/07 10:06:19;;;;;;;1577.50;244.00;;;8.80;99.90;;;;;;5024826;28;20210;-56
2023/04/07 10:08:48;;;;;;;1435.67;207.00;;;8.80;99.90;;;;;;5017884;28;20237;-54
2023/04/07 10:11:18;;;;;;;625.93;118.43;;;9.00;99.90;;;;;;5031518;28;20758;-56
2023/04/07 10:13:46;;;;;;;65.13;35.00;;;9.10;99.90;;;;;;5031784;28;20309;-55
2023/04/07 10:16:15;;;;;;;695.33;116.77;;;9.00;99.90;;;;;;5027326;28;20214;-55
2023/04/07 10:18:44;;;;;;;1999.90;551.27;;;9.10;99.90;;;;;;5030623;28;20866;-54
2023/04/07 10:21:14;;;;;;;451.53;77.93;;;9.20;99.90;;;;;;5031676;28;20348;-55
2023/04/07 10:23:50;;;;;;;1999.90;367.97;;;9.20;99.90;;;;;;5030988;28;20229;-55
2023/04/07 10:26:25;;;;;;;1999.90;479.63;;;9.30;99.90;;;;;;5031705;28;20206;-54
2023/04/07 10:28:58;;;;;;;419.47;71.27;;;9.20;99.90;;;;;;5031385;28;20299;-55
2023/04/07 10:31:27;;;;;;;546.90;104.90;;;9.30;99.90;;;;;;5030895;28;20205;-54
2023/04/07 10:33:56;;;;;;;1999.90;540.60;;;9.30;99.90;;;;;;5030808;28;20206;-55
2023/04/07 10:36:24;;;;;;;798.37;181.70;;;9.30;99.90;;;;;;5031321;28;20268;-55
2023/04/07 10:39:21;;;;;;;1999.90;523.27;;;9.20;99.90;;;;;;5031136;28;21023;-55
2023/04/07 10:41:50;;;;;;;1889.47;318.33;;;9.20;99.90;;;;;;5031082;28;20431;-55
2023/04/07 10:44:51;;;;;;;446.90;89.27;;;9.10;99.90;;;;;;5031133;28;20213;-55
2023/04/07 10:47:19;;;;;;;115.47;41.70;;;9.20;99.90;;;;;;5030517;28;20264;-55
2023/04/07 10:50:16;;;;;;;1735.13;274.63;;;9.30;99.90;;;;;;5031109;28;20242;-55
2023/04/07 10:52:46;;;;;;;1999.90;583.87;;;9.40;99.90;;;;;;5031105;28;20340;-55
2023/04/07 10:55:31;;;;;;;1168.70;205.63;;;9.40;99.90;;;;;;5030880;28;20220;-55
2023/04/07 10:58:25;;;;;;;279.03;95.63;;;9.50;99.90;;;;;;5031028;28;20221;-55
2023/04/07 11:01:19;;;;;;;1999.90;516.13;;;9.50;99.90;;;;;;5010897;28;20285;-55
2023/04/07 11:03:58;;;;;;;1402.43;328.20;;;9.70;99.90;;;;;;5017093;28;20564;-54
2023/04/07 11:06:27;;;;;;;1999.90;766.87;;;9.60;99.90;;;;;;5030493;28;20205;-54
2023/04/07 11:08:55;;;;;;;626.73;142.67;;;9.60;99.90;;;;;;5030766;28;20289;-55
2023/04/07 11:11:38;;;;;;;1999.90;566.93;;;9.50;99.90;;;;;;5029737;28;20239;-55
2023/04/07 11:14:07;;;;;;;1999.90;323.40;;;9.50;99.90;;;;;;5030794;28;20209;-54
2023/04/07 11:16:45;;;;;;;1999.90;397.10;;;9.60;99.90;;;;;;5030112;28;20212;-55
2023/04/07 11:19:13;;;;;;;1407.47;333.33;;;9.50;99.90;;;;;;5030529;28;20225;-56
2023/04/07 11:21:41;;;;;;;668.17;159.07;;;9.50;99.90;;;;;;5029890;28;20740;-55
2023/04/07 11:24:09;;;;;;;1123.67;200.37;;;9.40;99.90;;;;;;5030772;28;20767;-55
2023/04/07 11:26:38;;;;;;;1999.90;933.33;;;9.50;99.90;;;;;;5030015;28;20234;-55
2023/04/07 11:29:09;;;;;;;946.40;223.50;;;9.60;99.90;;;;;;5029662;28;20234;-54
2023/04/07 11:31:38;;;;;;;1999.90;607.33;;;9.50;99.90;;;;;;5029837;28;20248;-55
2023/04/07 11:34:07;;;;;;;1691.13;378.90;;;9.40;99.90;;;;;;5026595;28;20203;-55
2023/04/07 11:36:41;;;;;;;1929.30;353.73;;;9.30;99.90;;;;;;5030180;28;20205;-55
2023/04/07 11:39:19;;;;;;;1997.77;471.67;;;9.40;99.90;;;;;;5030153;28;20686;-55
2023/04/07 11:41:49;;;;;;;1999.90;512.60;;;9.50;99.90;;;;;;5017693;28;20311;-55
2023/04/07 11:44:18;;;;;;;1999.90;414.43;;;9.50;99.90;;;;;;5030317;28;20656;-54
2023/04/07 11:46:54;;;;;;;823.67;108.13;;;9.70;99.90;;;;;;5028977;28;20237;-55
2023/04/07 11:49:23;;;;;;;258.97;65.10;;;9.90;99.90;;;;;;5029792;28;20237;-55
2023/04/07 11:51:59;;;;;;;301.50;80.67;;;9.90;99.90;;;;;;5029119;28;20721;-55
2023/04/07 11:54:27;;;;;;;1026.13;257.73;;;10.00;99.90;;;;;;5029809;28;20209;-55
2023/04/07 11:56:55;;;;;;;1999.90;549.73;;;9.90;99.90;;;;;;5016515;28;20207;-54
2023/04/07 11:59:25;;;;;;;1999.90;690.67;;;10.10;99.90;;;;;;5023501;28;20210;-54
2023/04/07 12:01:53;;;;;;;491.10;168.80;;;10.30;99.90;;;;;;5028163;28;20309;-54
2023/04/07 12:04:24;;;;;;;1434.90;268.73;;;10.20;99.90;;;;;;5028333;28;20237;-55
2023/04/07 12:06:53;;;;;;;1999.90;405.53;;;10.10;99.90;;;;;;5029489;28;20218;-54
2023/04/07 12:09:29;;;;;;;1999.90;670.47;;;10.20;99.90;;;;;;5029566;28;20301;-55
2023/04/07 12:11:58;;;;;;;1999.90;438.37;;;10.30;99.90;;;;;;5029296;28;20283;-55
2023/04/07 12:14:27;;;;;;;1999.90;382.53;;;10.40;99.90;;;;;;5029191;28;20261;-54
2023/04/07 12:16:56;;;;;;;754.33;179.03;;;10.60;99.90;;;;;;5028173;28;20271;-54
2023/04/07 12:19:27;;;;;;;1433.83;220.07;;;10.60;99.90;;;;;;5028967;28;20317;-55
2023/04/07 12:21:55;;;;;;;1752.93;308.13;;;10.70;99.90;;;;;;5029347;28;20230;-54
2023/04/07 12:24:23;;;;;;;1999.90;456.30;;;10.80;99.90;;;;;;5028455;28;20217;-55
2023/04/07 12:26:51;;;;;;;1810.37;278.30;;;11.10;99.90;;;;;;5029356;28;20287;-54
2023/04/07 12:29:19;;;;;;;1998.13;378.93;;;11.40;99.90;;;;;;5029511;28;20206;-56
2023/04/07 12:31:49;;;;;;;1999.90;690.00;;;11.40;99.90;;;;;;5028253;28;20713;-55
2023/04/07 12:34:18;;;;;;;1999.90;655.07;;;11.40;99.90;;;;;;5028923;28;20297;-55